Time;durP1;ratioP1;P1;durP2;ratioP2;P2;SDS_P1;SDS_P2;PMS_P1;PMS_P2;Temp;Humidity;BMP_temperature;BMP_pressure;BME280_temperature;BME280_humidity;BME280_pressure;Samples;Min_cycle;Max_cycle;Signal;HPM_P1;HPM_P2
2024/04/21 00:01:57;;;;;;;4.73;4.07;;;3.50;99.90;;;;;;5205297;27;20016;-81
2024/04/21 00:04:24;;;;;;;5.40;4.43;;;3.40;99.90;;;;;;5202837;27;20014;-83
2024/04/21 00:06:50;;;;;;;8.07;4.73;;;3.40;99.90;;;;;;5185130;27;20428;-83
2024/04/21 00:09:16;;;;;;;5.70;4.60;;;3.40;99.90;;;;;;5185098;27;20013;-82
2024/04/21 00:11:42;;;;;;;8.50;4.20;;;3.30;99.90;;;;;;5156815;27;20011;-82
2024/04/21 00:14:08;;;;;;;8.13;4.00;;;3.30;99.90;;;;;;5184354;27;20004;-81
2024/04/21 00:16:34;;;;;;;5.87;4.33;;;3.30;99.90;;;;;;5184209;27;20071;-82
2024/04/21 00:19:00;;;;;;;7.23;4.60;;;3.30;99.90;;;;;;5183621;27;20009;-82
2024/04/21 00:21:28;;;;;;;6.80;4.73;;;3.30;99.90;;;;;;5182851;27;20008;-81
2024/04/21 00:23:55;;;;;;;10.10;4.77;;;3.30;99.90;;;;;;5185877;27;20087;-82
2024/04/21 00:26:20;;;;;;;6.67;4.67;;;3.20;99.90;;;;;;5155017;27;20011;-82
2024/04/21 00:28:48;;;;;;;6.07;4.90;;;3.20;99.90;;;;;;5183613;27;20064;-82
2024/04/21 00:31:14;;;;;;;7.67;4.80;;;3.30;99.90;;;;;;5154735;27;20025;-82
2024/04/21 00:33:39;;;;;;;7.43;5.00;;;3.20;99.90;;;;;;5187296;27;20007;-82
2024/04/21 00:36:05;;;;;;;7.23;4.90;;;3.30;99.90;;;;;;5184222;27;20027;-82
2024/04/21 00:38:31;;;;;;;8.30;5.47;;;3.30;99.90;;;;;;5184420;27;20050;-82
2024/04/21 00:40:57;;;;;;;12.77;6.47;;;3.30;99.90;;;;;;5153336;27;20008;-83
2024/04/21 00:43:22;;;;;;;7.23;5.60;;;3.30;99.90;;;;;;5181661;27;20057;-82
2024/04/21 00:45:49;;;;;;;9.37;6.10;;;3.30;99.90;;;;;;5185616;27;20030;-83
2024/04/21 00:48:16;;;;;;;10.07;6.13;;;3.30;99.90;;;;;;5184336;27;20012;-82
2024/04/21 00:50:49;;;;;;;8.13;5.90;;;3.30;99.90;;;;;;5181788;27;20019;-82
2024/04/21 00:53:17;;;;;;;7.40;6.13;;;3.30;99.90;;;;;;5185139;27;20649;-82
2024/04/21 00:55:43;;;;;;;12.07;8.00;;;3.30;99.90;;;;;;5188587;27;20008;-82
2024/04/21 00:58:11;;;;;;;11.53;7.10;;;3.30;99.90;;;;;;5187658;27;20016;-81
2024/04/21 01:00:37;;;;;;;8.43;6.03;;;3.30;99.90;;;;;;5189764;27;20039;-81
2024/04/21 01:03:03;;;;;;;10.90;6.80;;;3.30;99.90;;;;;;5187643;27;20005;-81
2024/04/21 01:05:29;;;;;;;8.53;6.30;;;3.30;99.90;;;;;;5187262;27;20030;-81
2024/04/21 01:07:55;;;;;;;7.70;5.67;;;3.30;99.90;;;;;;5188718;27;20008;-81
2024/04/21 01:10:21;;;;;;;8.50;6.10;;;3.30;99.90;;;;;;5186301;27;20023;-82
2024/04/21 01:12:46;;;;;;;10.43;7.17;;;3.30;99.90;;;;;;5187111;27;20024;-81
2024/04/21 01:15:12;;;;;;;8.70;6.63;;;3.30;99.90;;;;;;5186995;27;20099;-81
2024/04/21 01:17:38;;;;;;;8.00;6.23;;;3.30;99.90;;;;;;5186738;27;20016;-82
2024/04/21 01:20:04;;;;;;;8.27;6.37;;;3.30;99.90;;;;;;5187337;27;20008;-81
2024/04/21 01:22:30;;;;;;;11.73;7.07;;;3.30;99.90;;;;;;5186168;27;20026;-81
2024/04/21 01:24:56;;;;;;;9.33;6.30;;;3.30;99.90;;;;;;5185820;27;20008;-81
2024/04/21 01:27:21;;;;;;;9.40;6.93;;;3.30;99.90;;;;;;5186874;27;20016;-81
2024/04/21 01:29:47;;;;;;;8.17;6.13;;;3.40;99.90;;;;;;5187119;27;20094;-82
2024/04/21 01:32:21;;;;;;;9.23;7.80;;;3.30;99.90;;;;;;5186388;27;20016;-81
2024/04/21 01:34:47;;;;;;;7.57;6.13;;;3.40;99.90;;;;;;5187852;27;20003;-81
2024/04/21 01:37:15;;;;;;;9.50;7.33;;;3.40;99.90;;;;;;5185570;27;20576;-82
2024/04/21 01:39:41;;;;;;;9.63;6.60;;;3.40;99.90;;;;;;5186291;27;20015;-82
2024/04/21 01:42:07;;;;;;;8.43;7.03;;;3.40;99.90;;;;;;5186149;27;20012;-81
2024/04/21 01:44:32;;;;;;;7.93;6.90;;;3.50;99.90;;;;;;5187881;27;20008;-81
2024/04/21 01:46:58;;;;;;;7.50;6.30;;;3.50;99.90;;;;;;5186718;27;20008;-81
2024/04/21 01:49:23;;;;;;;7.20;6.50;;;3.50;99.90;;;;;;5187623;27;20915;-81
2024/04/21 01:51:49;;;;;;;7.67;6.53;;;3.50;99.90;;;;;;5186259;27;20000;-81
2024/04/21 01:54:14;;;;;;;8.53;7.17;;;3.50;99.90;;;;;;5187173;27;20025;-81
2024/04/21 01:56:40;;;;;;;9.53;7.10;;;3.40;99.90;;;;;;5187493;27;20024;-81
2024/04/21 01:59:05;;;;;;;10.00;7.33;;;3.40;99.90;;;;;;5186845;27;20031;-81
2024/04/21 02:01:31;;;;;;;8.53;6.80;;;3.30;99.90;;;;;;5186210;27;20008;-81
2024/04/21 02:03:56;;;;;;;7.50;6.57;;;3.40;99.90;;;;;;5185811;27;20012;-81
2024/04/21 02:06:22;;;;;;;7.60;6.57;;;3.40;99.90;;;;;;5184371;27;20365;-81
2024/04/21 02:08:47;;;;;;;8.07;6.50;;;3.40;99.90;;;;;;5185346;27;20020;-81
2024/04/21 02:11:13;;;;;;;8.03;6.50;;;3.40;99.90;;;;;;5156029;27;21493;-80
2024/04/21 02:13:39;;;;;;;8.07;6.70;;;3.40;99.90;;;;;;5185590;27;20043;-81
2024/04/21 02:16:07;;;;;;;8.93;6.80;;;3.40;99.90;;;;;;5186059;27;20013;-81
2024/04/21 02:18:33;;;;;;;8.83;7.07;;;3.40;99.90;;;;;;5187854;27;20101;-82
2024/04/21 02:20:59;;;;;;;7.83;6.53;;;3.40;99.90;;;;;;5185257;27;21717;-81
2024/04/21 02:23:26;;;;;;;7.20;6.23;;;3.40;99.90;;;;;;5157050;27;20053;-81
2024/04/21 02:25:59;;;;;;;9.10;7.23;;;3.40;99.90;;;;;;5186893;27;20019;-81
2024/04/21 02:28:24;;;;;;;8.50;6.90;;;3.40;99.90;;;;;;5189026;27;20008;-82
2024/04/21 02:30:50;;;;;;;8.53;6.97;;;3.40;99.90;;;;;;5186233;27;20009;-81
2024/04/21 02:33:15;;;;;;;8.97;7.47;;;3.30;99.90;;;;;;5160096;27;20096;-81
2024/04/21 02:35:41;;;;;;;8.13;7.30;;;3.30;99.90;;;;;;5188115;27;20051;-81
2024/04/21 02:38:09;;;;;;;10.13;7.63;;;3.30;99.90;;;;;;5186756;27;20015;-80
2024/04/21 02:40:34;;;;;;;8.30;6.83;;;3.30;99.90;;;;;;5186231;27;20060;-82
2024/04/21 02:43:00;;;;;;;9.40;7.67;;;3.30;99.90;;;;;;5185956;27;20134;-81
2024/04/21 02:45:26;;;;;;;11.37;7.37;;;3.30;99.90;;;;;;5185953;27;20131;-81
2024/04/21 02:47:51;;;;;;;8.97;7.83;;;3.30;99.90;;;;;;5186431;27;20028;-82
2024/04/21 02:50:17;;;;;;;8.37;7.00;;;3.30;99.90;;;;;;5185990;27;20797;-82
2024/04/21 02:52:42;;;;;;;8.57;6.87;;;3.30;99.90;;;;;;5184076;27;20004;-82
2024/04/21 02:55:08;;;;;;;7.60;6.80;;;3.30;99.90;;;;;;5186466;27;20103;-81
2024/04/21 02:57:34;;;;;;;8.00;6.50;;;3.40;99.90;;;;;;5186319;27;21436;-81
2024/04/21 02:59:59;;;;;;;8.47;6.73;;;3.30;99.90;;;;;;5186960;27;20012;-81
2024/04/21 03:02:25;;;;;;;7.60;6.80;;;3.30;99.90;;;;;;5185196;27;20010;-81
2024/04/21 03:04:51;;;;;;;7.70;6.37;;;3.30;99.90;;;;;;5190651;27;20008;-82
2024/04/21 03:07:17;;;;;;;7.83;6.70;;;3.40;99.90;;;;;;5199329;27;20010;-81
2024/04/21 03:09:43;;;;;;;7.33;6.47;;;3.30;99.90;;;;;;5199911;27;20008;-82
2024/04/21 03:12:09;;;;;;;8.67;7.53;;;3.30;99.90;;;;;;5170579;27;20472;-81
2024/04/21 03:14:35;;;;;;;8.13;7.00;;;3.30;99.90;;;;;;5196064;27;19999;-80
2024/04/21 03:17:02;;;;;;;7.83;6.87;;;3.30;99.90;;;;;;5198400;27;20013;-81
2024/04/21 03:19:28;;;;;;;10.23;6.80;;;3.30;99.90;;;;;;5198209;27;20004;-81
2024/04/21 03:21:53;;;;;;;9.43;7.23;;;3.30;99.90;;;;;;5201170;27;20008;-81
2024/04/21 03:24:19;;;;;;;8.43;6.93;;;3.30;99.90;;;;;;5198349;27;20032;-81
2024/04/21 03:26:44;;;;;;;8.60;6.87;;;3.30;99.90;;;;;;5197970;27;20120;-82
2024/04/21 03:29:10;;;;;;;7.80;6.63;;;3.30;99.90;;;;;;5198222;27;20004;-82
2024/04/21 03:31:35;;;;;;;7.10;6.30;;;3.30;99.90;;;;;;5199765;27;20024;-82
2024/04/21 03:34:01;;;;;;;10.17;7.27;;;3.30;99.90;;;;;;5202406;27;20032;-82
2024/04/21 03:36:27;;;;;;;7.30;6.40;;;3.30;99.90;;;;;;5196604;27;20004;-81
2024/04/21 03:38:52;;;;;;;7.03;6.30;;;3.30;99.90;;;;;;5201480;27;20051;-82
2024/04/21 03:41:18;;;;;;;7.83;6.53;;;3.30;99.90;;;;;;5197881;27;20019;-82
2024/04/21 03:43:46;;;;;;;7.80;6.47;;;3.30;99.90;;;;;;5199265;27;20027;-81
2024/04/21 03:46:12;;;;;;;7.13;6.37;;;3.30;99.90;;;;;;5200123;27;20008;-82
2024/04/21 03:48:39;;;;;;;6.73;5.60;;;3.30;99.90;;;;;;5198668;27;20019;-83
2024/04/21 03:51:05;;;;;;;6.23;5.53;;;3.30;99.90;;;;;;5202363;27;20020;-82
2024/04/21 03:53:31;;;;;;;5.80;5.20;;;3.30;99.90;;;;;;5195436;27;20060;-82
2024/04/21 03:55:57;;;;;;;7.17;5.47;;;3.20;99.90;;;;;;5197939;27;20012;-81
2024/04/21 03:58:23;;;;;;;6.13;5.20;;;3.20;99.90;;;;;;5196786;27;20741;-81
2024/04/21 04:00:49;;;;;;;6.00;5.30;;;3.20;99.90;;;;;;5200190;27;20008;-82
2024/04/21 04:03:15;;;;;;;5.10;4.60;;;3.20;99.90;;;;;;5195988;27;20080;-82
2024/04/21 04:05:43;;;;;;;5.97;5.13;;;3.20;99.90;;;;;;5200568;27;20041;-81
2024/04/21 04:08:09;;;;;;;5.80;4.80;;;3.10;99.90;;;;;;5197167;27;20012;-81
2024/04/21 04:10:35;;;;;;;6.27;4.90;;;3.20;99.90;;;;;;5167062;27;20095;-81
2024/04/21 04:13:00;;;;;;;6.07;5.37;;;3.20;99.90;;;;;;5196106;27;20004;-81
2024/04/21 04:15:26;;;;;;;6.03;4.80;;;3.20;99.90;;;;;;5165345;27;20032;-82
2024/04/21 04:17:53;;;;;;;5.80;5.20;;;3.20;99.90;;;;;;5193273;27;20012;-82
2024/04/21 04:20:18;;;;;;;6.97;4.90;;;3.20;99.90;;;;;;5197722;27;20008;-82
2024/04/21 04:22:44;;;;;;;6.03;5.13;;;3.20;99.90;;;;;;5200438;27;20058;-82
2024/04/21 04:25:09;;;;;;;5.90;4.90;;;3.20;99.90;;;;;;5201356;27;20008;-82
2024/04/21 04:27:36;;;;;;;6.23;4.80;;;3.20;99.90;;;;;;5197521;27;20688;-81
2024/04/21 04:30:02;;;;;;;6.77;5.63;;;3.20;99.90;;;;;;5199085;27;20004;-82
2024/04/21 04:32:28;;;;;;;7.10;5.60;;;3.30;99.90;;;;;;5200748;27;20495;-82
2024/04/21 04:34:54;;;;;;;7.70;5.93;;;3.20;99.90;;;;;;5199959;27;20007;-82
2024/04/21 04:37:20;;;;;;;11.20;6.40;;;3.30;99.90;;;;;;5200110;27;20012;-82
2024/04/21 04:39:47;;;;;;;8.50;6.03;;;3.20;99.90;;;;;;5197771;27;20023;-82
2024/04/21 04:42:12;;;;;;;7.90;6.57;;;3.30;99.90;;;;;;5196370;27;20022;-83
2024/04/21 04:44:38;;;;;;;7.53;5.87;;;3.30;99.90;;;;;;5196061;27;20008;-82
2024/04/21 04:47:04;;;;;;;8.23;5.83;;;3.30;99.90;;;;;;5196151;27;20012;-82
2024/04/21 04:49:30;;;;;;;8.13;6.20;;;3.30;99.90;;;;;;5197152;27;20011;-82
2024/04/21 04:51:57;;;;;;;8.77;6.80;;;3.30;99.90;;;;;;5197738;27;20023;-82
2024/04/21 04:54:23;;;;;;;8.37;7.43;;;3.30;99.90;;;;;;5196833;27;20059;-82
2024/04/21 04:56:52;;;;;;;9.13;7.60;;;3.40;99.90;;;;;;5197643;27;20076;-82
2024/04/21 04:59:17;;;;;;;7.63;6.83;;;3.30;99.90;;;;;;5194444;27;20015;-82
2024/04/21 05:01:43;;;;;;;8.53;6.93;;;3.40;99.90;;;;;;5195986;27;20676;-82
2024/04/21 05:07:13;;;;;;;9.60;7.17;;;3.40;99.90;;;;;;5429018;26;20466;-80
2024/04/21 05:09:38;;;;;;;9.00;7.47;;;3.40;99.90;;;;;;5390794;26;20131;-82
2024/04/21 05:12:04;;;;;;;9.53;6.80;;;3.50;99.90;;;;;;5388317;26;20007;-82
2024/04/21 05:14:30;;;;;;;8.33;7.37;;;3.50;99.90;;;;;;5389540;26;20012;-82
2024/04/21 05:16:55;;;;;;;9.00;7.37;;;3.60;99.90;;;;;;5388855;26;20018;-82
2024/04/21 05:19:21;;;;;;;8.53;6.97;;;3.50;99.90;;;;;;5390027;26;20013;-83
2024/04/21 05:21:46;;;;;;;10.37;6.83;;;3.50;99.90;;;;;;5391244;26;20039;-83
2024/04/21 05:24:12;;;;;;;8.27;7.33;;;3.60;99.90;;;;;;5391254;26;20008;-83
2024/04/21 05:26:38;;;;;;;9.17;7.30;;;3.60;99.90;;;;;;5388876;26;19996;-82
2024/04/21 05:29:03;;;;;;;9.67;6.83;;;3.70;99.90;;;;;;5389853;26;19997;-82
2024/04/21 05:31:29;;;;;;;7.87;7.00;;;3.70;99.90;;;;;;5388386;26;20015;-82
2024/04/21 05:33:54;;;;;;;9.47;7.43;;;3.70;99.90;;;;;;5390449;26;20069;-82
2024/04/21 05:36:20;;;;;;;9.33;7.73;;;3.80;99.90;;;;;;5388023;26;20075;-83
2024/04/21 05:38:45;;;;;;;11.73;7.07;;;3.80;99.90;;;;;;5390022;26;20004;-82
2024/04/21 05:41:11;;;;;;;8.03;6.03;;;3.80;99.90;;;;;;5388732;26;20035;-83
2024/04/21 05:43:36;;;;;;;8.17;6.13;;;3.80;99.90;;;;;;5390453;26;20499;-81
2024/04/21 05:46:03;;;;;;;10.00;7.17;;;3.80;99.90;;;;;;5388803;26;20016;-81
2024/04/21 05:48:28;;;;;;;7.53;6.20;;;3.80;99.90;;;;;;5389570;26;20053;-82
2024/04/21 05:50:55;;;;;;;8.83;6.67;;;3.80;99.90;;;;;;5389134;26;20004;-82
2024/04/21 05:53:21;;;;;;;8.10;6.33;;;3.80;99.90;;;;;;5388339;26;20107;-82
2024/04/21 05:55:47;;;;;;;6.97;5.93;;;3.80;99.90;;;;;;5387326;26;20003;-83
2024/04/21 05:58:13;;;;;;;8.87;6.53;;;3.80;99.90;;;;;;5388229;26;19999;-83
2024/04/21 06:00:38;;;;;;;7.00;5.90;;;3.90;99.90;;;;;;5387771;26;20021;-83
2024/04/21 06:03:05;;;;;;;7.03;5.60;;;4.00;99.90;;;;;;5389663;26;20054;-83
2024/04/21 06:05:31;;;;;;;7.87;6.17;;;4.00;99.90;;;;;;5385042;26;20013;-83
2024/04/21 06:07:57;;;;;;;6.50;5.30;;;4.10;99.90;;;;;;5386580;26;20032;-81
2024/04/21 06:10:22;;;;;;;7.30;5.83;;;4.10;99.90;;;;;;5385114;26;20007;-82
2024/04/21 06:12:48;;;;;;;6.53;5.30;;;4.20;99.90;;;;;;5388759;26;20008;-81
2024/04/21 06:15:20;;;;;;;7.10;5.47;;;4.30;99.90;;;;;;5386726;26;20011;-82
2024/04/21 06:17:45;;;;;;;6.30;5.27;;;4.30;99.90;;;;;;5371833;26;20334;-82
2024/04/21 06:20:11;;;;;;;7.43;5.47;;;4.40;99.90;;;;;;5369605;26;20055;-82
2024/04/21 06:22:37;;;;;;;6.27;4.90;;;4.40;99.90;;;;;;5366510;26;20005;-81
2024/04/21 06:25:03;;;;;;;7.43;5.10;;;4.50;99.90;;;;;;5368355;26;20062;-82
2024/04/21 06:27:29;;;;;;;6.53;4.60;;;4.50;99.90;;;;;;5365988;26;21152;-82
2024/04/21 06:29:58;;;;;;;6.87;5.80;;;4.60;99.90;;;;;;5369928;26;21814;-83
2024/04/21 06:32:24;;;;;;;5.43;4.80;;;4.60;99.90;;;;;;5366611;26;20019;-83
2024/04/21 06:34:50;;;;;;;5.50;4.33;;;4.60;99.90;;;;;;5369557;26;20004;-83
2024/04/21 06:37:15;;;;;;;6.57;4.97;;;4.70;99.90;;;;;;5368423;26;20436;-84
2024/04/21 06:39:41;;;;;;;4.67;4.17;;;4.70;99.90;;;;;;5369522;26;20012;-84
2024/04/21 06:42:08;;;;;;;8.50;4.93;;;4.80;99.90;;;;;;5368117;26;20723;-83
2024/04/21 06:44:34;;;;;;;5.10;4.03;;;4.90;99.90;;;;;;5367305;26;20005;-83
2024/04/21 06:47:00;;;;;;;4.10;3.40;;;4.90;99.90;;;;;;5370434;26;20011;-83
2024/04/21 06:49:26;;;;;;;4.60;3.53;;;4.90;99.90;;;;;;5372922;26;20004;-83
2024/04/21 06:51:51;;;;;;;5.77;3.63;;;4.90;99.90;;;;;;5369844;26;20056;-79
2024/04/21 06:54:17;;;;;;;5.60;3.47;;;4.90;99.90;;;;;;5373118;26;19996;-83
2024/04/21 06:56:42;;;;;;;6.40;3.37;;;4.80;99.90;;;;;;5368326;26;21747;-83
2024/04/21 06:59:10;;;;;;;3.63;2.87;;;4.90;99.90;;;;;;5373928;26;20767;-82
2024/04/21 07:01:35;;;;;;;6.03;3.43;;;4.90;99.90;;;;;;5374682;26;20019;-83
2024/04/21 07:04:01;;;;;;;7.40;4.13;;;5.00;99.90;;;;;;5375601;26;20008;-86
2024/04/21 07:06:26;;;;;;;3.13;2.70;;;5.10;99.90;;;;;;5372523;26;20032;-81
2024/04/21 07:08:52;;;;;;;3.80;2.40;;;5.20;99.90;;;;;;5359764;26;21883;-85
2024/04/21 07:11:18;;;;;;;4.80;2.37;;;5.20;99.90;;;;;;5356477;26;20444;-85
2024/04/21 07:13:44;;;;;;;4.00;2.20;;;5.30;99.90;;;;;;5357244;26;20023;-85
2024/04/21 07:16:09;;;;;;;5.03;2.63;;;5.40;99.90;;;;;;5355259;26;20385;-85
2024/04/21 07:18:35;;;;;;;6.60;2.37;;;5.40;99.90;;;;;;5361589;26;20045;-85
2024/04/21 07:21:03;;;;;;;3.77;2.10;;;5.50;99.90;;;;;;5358869;26;20015;-86
2024/04/21 07:23:28;;;;;;;1.93;1.53;;;5.50;99.90;;;;;;5361963;26;20004;-86
2024/04/21 07:25:54;;;;;;;2.37;1.60;;;5.40;99.90;;;;;;5361855;26;20023;-85
2024/04/21 07:28:19;;;;;;;3.53;1.70;;;5.30;99.90;;;;;;5367169;26;20019;-84
2024/04/21 07:30:46;;;;;;;2.90;1.70;;;5.10;99.90;;;;;;5362975;26;20004;-86
2024/04/21 07:33:12;;;;;;;2.20;1.53;;;5.00;99.90;;;;;;5361303;26;19997;-84
2024/04/21 07:35:37;;;;;;;3.37;1.40;;;5.00;99.90;;;;;;5363369;26;20125;-84
2024/04/21 07:38:03;;;;;;;4.20;1.60;;;5.10;99.90;;;;;;5364884;26;20008;-85
2024/04/21 07:40:29;;;;;;;3.10;1.60;;;5.10;99.90;;;;;;5361077;26;19999;-82
2024/04/21 07:42:55;;;;;;;2.77;1.67;;;5.30;99.90;;;;;;5363495;26;20052;-84
2024/04/21 07:45:21;;;;;;;2.13;1.40;;;5.40;99.90;;;;;;5366533;26;20011;-84
2024/04/21 07:47:46;;;;;;;3.70;1.50;;;5.60;99.90;;;;;;5367518;26;20038;-83
2024/04/21 07:50:12;;;;;;;3.37;1.50;;;5.80;99.90;;;;;;5365843;26;20003;-84
2024/04/21 07:52:39;;;;;;;3.30;1.50;;;5.80;99.90;;;;;;5362538;26;20005;-84
2024/04/21 07:55:05;;;;;;;3.27;1.60;;;5.80;99.90;;;;;;5364152;26;20004;-84
2024/04/21 07:57:31;;;;;;;4.33;1.60;;;5.80;99.90;;;;;;5361047;26;20468;-85
2024/04/21 07:59:56;;;;;;;3.97;1.80;;;5.80;99.90;;;;;;5360546;26;20077;-85
2024/04/21 08:02:22;;;;;;;6.43;1.90;;;5.80;99.90;;;;;;5363578;26;20027;-86
2024/04/21 08:04:47;;;;;;;2.73;1.80;;;5.70;99.90;;;;;;5363344;26;20028;-85
2024/04/21 08:07:13;;;;;;;3.00;1.70;;;5.80;99.90;;;;;;5358380;26;20004;-85
2024/04/21 08:09:39;;;;;;;3.90;1.77;;;5.80;99.90;;;;;;5363413;26;20044;-84
2024/04/21 08:12:05;;;;;;;3.77;1.83;;;5.80;99.90;;;;;;5368238;26;21155;-85
2024/04/21 08:14:31;;;;;;;2.77;2.13;;;5.70;99.90;;;;;;5367833;26;20000;-86
2024/04/21 08:16:59;;;;;;;2.63;2.00;;;5.80;99.90;;;;;;5370421;26;20026;-85
2024/04/21 08:19:25;;;;;;;2.90;2.10;;;5.90;99.90;;;;;;5364689;26;20018;-85
2024/04/21 08:21:51;;;;;;;2.20;1.70;;;6.00;99.90;;;;;;5363455;26;20325;-86
2024/04/21 08:24:16;;;;;;;3.50;2.57;;;6.20;99.90;;;;;;5358495;26;20014;-87
2024/04/21 08:26:42;;;;;;;2.67;1.67;;;6.30;99.90;;;;;;5360908;26;20012;-88
2024/04/21 08:29:08;;;;;;;2.73;1.60;;;6.50;99.90;;;;;;5362515;26;20012;-87
2024/04/21 08:31:33;;;;;;;3.17;1.63;;;6.60;99.90;;;;;;5364839;26;20047;-87
2024/04/21 08:33:59;;;;;;;3.80;2.23;;;6.70;99.90;;;;;;5363796;26;19992;-87
2024/04/21 08:36:25;;;;;;;3.50;1.83;;;6.90;99.90;;;;;;5363062;26;20008;-87
2024/04/21 08:38:50;;;;;;;3.43;1.70;;;7.20;99.90;;;;;;5362313;26;20057;-87
2024/04/21 08:41:21;;;;;;;4.00;2.17;;;7.30;99.90;;;;;;5360543;26;20004;-87
2024/04/21 08:43:51;;;;;;;2.70;2.00;;;7.30;99.90;;;;;;5361698;26;20000;-87
2024/04/21 08:46:18;;;;;;;2.23;1.80;;;7.20;99.90;;;;;;5363111;26;20039;-85
2024/04/21 08:48:44;;;;;;;5.77;2.20;;;7.00;99.90;;;;;;5364466;26;20008;-85
2024/04/21 08:51:10;;;;;;;5.50;2.00;;;6.60;99.90;;;;;;5362660;26;20264;-86
2024/04/21 08:53:37;;;;;;;5.17;1.93;;;6.10;99.90;;;;;;5356926;26;20383;-87
2024/04/21 08:56:13;;;;;;;3.03;2.03;;;5.50;99.90;;;;;;5357978;26;20816;-89
2024/04/21 08:58:41;;;;;;;3.43;2.07;;;5.00;99.90;;;;;;5361580;26;20019;-88
2024/04/21 09:01:07;;;;;;;5.53;2.70;;;4.50;99.90;;;;;;5359867;26;20008;-88
2024/04/21 09:03:35;;;;;;;6.93;3.20;;;4.20;99.90;;;;;;5361874;26;20059;-88
2024/04/21 09:06:03;;;;;;;4.80;3.07;;;4.00;99.90;;;;;;5359885;26;20016;-88
2024/04/21 09:08:28;;;;;;;4.97;2.90;;;3.90;99.90;;;;;;5360062;26;20972;-88
2024/04/21 09:10:55;;;;;;;4.87;3.00;;;3.80;99.90;;;;;;5358026;26;20019;-87
2024/04/21 09:13:21;;;;;;;5.10;2.77;;;3.80;99.90;;;;;;5361132;26;20411;-87
2024/04/21 09:15:46;;;;;;;7.27;3.10;;;3.80;99.90;;;;;;5358510;26;20017;-87
2024/04/21 09:18:12;;;;;;;5.80;3.30;;;3.80;99.90;;;;;;5361293;26;20052;-87
2024/04/21 09:20:37;;;;;;;7.83;3.37;;;3.90;99.90;;;;;;5362792;26;20128;-86
2024/04/21 09:23:08;;;;;;;6.13;3.47;;;4.00;99.90;;;;;;5364861;26;20012;-87
2024/04/21 09:25:36;;;;;;;5.27;3.07;;;4.10;99.90;;;;;;5365889;26;20005;-87
2024/04/21 09:28:02;;;;;;;5.50;3.30;;;4.20;99.90;;;;;;5362038;26;20019;-86
2024/04/21 09:30:27;;;;;;;7.20;3.10;;;4.40;99.90;;;;;;5362952;26;20065;-85
2024/04/21 09:32:54;;;;;;;7.30;3.30;;;4.60;99.90;;;;;;5361375;26;20032;-85
2024/04/21 09:35:20;;;;;;;7.03;3.70;;;4.70;99.90;;;;;;5362683;26;20004;-85
2024/04/21 09:37:46;;;;;;;6.33;3.13;;;4.90;99.90;;;;;;5362216;26;20089;-85
2024/04/21 09:40:12;;;;;;;4.20;2.87;;;5.10;99.90;;;;;;5363168;26;20008;-85
2024/04/21 09:42:40;;;;;;;7.27;3.57;;;5.40;99.90;;;;;;5359817;26;20016;-85
2024/04/21 09:45:07;;;;;;;5.57;3.13;;;5.50;99.90;;;;;;5360624;26;20001;-86
2024/04/21 09:47:34;;;;;;;4.50;3.10;;;5.70;99.90;;;;;;5361591;26;20005;-86
2024/04/21 09:50:02;;;;;;;7.77;3.20;;;5.80;99.90;;;;;;5364343;26;20013;-85
2024/04/21 09:52:28;;;;;;;7.33;3.13;;;5.90;99.90;;;;;;5365727;26;20015;-85
2024/04/21 09:54:54;;;;;;;4.50;2.97;;;6.00;99.90;;;;;;5367861;26;20016;-85
2024/04/21 09:57:19;;;;;;;4.67;2.90;;;6.00;99.90;;;;;;5371601;26;20023;-82
2024/04/21 09:59:46;;;;;;;4.50;2.80;;;6.00;99.90;;;;;;5366606;26;20011;-89
2024/04/21 10:02:12;;;;;;;4.03;1.80;;;5.90;99.90;;;;;;5381411;26;20000;-90
2024/04/21 10:04:42;;;;;;;2.50;1.40;;;5.60;99.90;;;;;;5388902;26;20008;-89
2024/04/21 10:07:08;;;;;;;1.87;1.30;;;5.40;99.90;;;;;;5388263;26;20431;-90
2024/04/21 10:09:34;;;;;;;3.27;2.10;;;5.20;99.90;;;;;;5386853;26;20000;-91
2024/04/21 10:12:03;;;;;;;2.43;1.10;;;5.10;99.90;;;;;;5387610;26;20090;-91
2024/04/21 10:14:31;;;;;;;1.93;1.07;;;5.10;99.90;;;;;;5383953;26;20004;-90
2024/04/21 10:16:57;;;;;;;1.27;1.10;;;5.10;99.90;;;;;;5386373;26;20008;-89
2024/04/21 10:19:26;;;;;;;2.20;1.00;;;5.10;99.90;;;;;;5387655;26;20014;-90
2024/04/21 10:21:52;;;;;;;1.20;1.10;;;5.20;99.90;;;;;;5370559;26;20019;-90
2024/04/21 10:24:19;;;;;;;1.50;1.00;;;5.20;99.90;;;;;;5365968;26;20004;-90
2024/04/21 10:26:44;;;;;;;1.37;1.10;;;5.40;99.90;;;;;;5369287;26;20000;-85
2024/04/21 10:29:11;;;;;;;1.37;1.10;;;5.40;99.90;;;;;;5368714;26;20018;-85
2024/04/21 10:31:36;;;;;;;1.33;1.20;;;5.50;99.90;;;;;;5367411;26;19992;-85
2024/04/21 10:34:08;;;;;;;1.43;1.20;;;5.60;99.90;;;;;;5367177;26;20014;-86
2024/04/21 10:36:45;;;;;;;0.93;0.83;;;5.70;99.90;;;;;;5372685;26;20177;-85
2024/04/21 10:39:11;;;;;;;0.90;0.80;;;5.80;99.90;;;;;;5367089;26;20012;-85
2024/04/21 10:41:46;;;;;;;0.73;0.73;;;5.80;99.90;;;;;;5363800;26;20501;-86
2024/04/21 10:44:12;;;;;;;1.25;1.00;;;5.90;99.90;;;;;;5366125;26;20444;-86
2024/04/21 10:46:38;;;;;;;0.70;0.70;;;6.00;99.90;;;;;;5362969;26;20015;-85
2024/04/21 10:49:04;;;;;;;1.00;0.90;;;6.10;99.90;;;;;;5362596;26;20096;-85
2024/04/21 10:51:30;;;;;;;1.00;0.90;;;6.10;99.90;;;;;;5362142;26;20012;-83
2024/04/21 10:53:56;;;;;;;0.80;0.80;;;6.10;99.90;;;;;;5363597;26;20000;-85
2024/04/21 10:56:22;;;;;;;1.00;0.90;;;6.20;99.90;;;;;;5362025;26;20017;-85
2024/04/21 10:58:50;;;;;;;0.90;0.90;;;6.20;99.90;;;;;;5360774;26;20012;-86
2024/04/21 11:01:15;;;;;;;1.00;0.87;;;6.20;99.90;;;;;;5364028;26;20413;-86
2024/04/21 11:03:42;;;;;;;3.13;1.00;;;6.20;99.90;;;;;;5359187;26;20012;-85
2024/04/21 11:06:08;;;;;;;2.83;0.90;;;6.20;99.90;;;;;;5360730;26;20148;-86
2024/04/21 11:08:34;;;;;;;5.47;1.20;;;6.20;99.90;;;;;;5364033;26;20078;-86
2024/04/21 11:11:01;;;;;;;3.00;1.30;;;6.10;99.90;;;;;;5362595;26;20028;-87
2024/04/21 11:13:27;;;;;;;1.73;1.00;;;6.10;99.90;;;;;;5361975;26;20349;-86
2024/04/21 11:15:53;;;;;;;1.80;1.00;;;6.10;99.90;;;;;;5360417;26;20030;-86
2024/04/21 11:18:19;;;;;;;1.20;1.00;;;6.10;99.90;;;;;;5361979;26;20468;-87
2024/04/21 11:20:45;;;;;;;3.13;1.30;;;6.10;99.90;;;;;;5362449;26;20000;-87
2024/04/21 11:23:14;;;;;;;3.90;1.30;;;6.10;99.90;;;;;;5362406;26;20005;-86
2024/04/21 11:25:39;;;;;;;2.07;1.27;;;6.10;99.90;;;;;;5362250;26;20101;-86
2024/04/21 11:28:12;;;;;;;1.70;1.10;;;6.10;99.90;;;;;;5361104;26;20012;-87
2024/04/21 11:30:40;;;;;;;3.20;1.30;;;6.00;99.90;;;;;;5361670;26;20023;-87
2024/04/21 11:33:06;;;;;;;1.20;1.07;;;6.10;99.90;;;;;;5360147;26;20032;-86
2024/04/21 11:35:32;;;;;;;1.40;1.10;;;6.10;99.90;;;;;;5363304;26;20449;-87
2024/04/21 11:37:58;;;;;;;1.70;1.13;;;6.10;99.90;;;;;;5361137;26;20012;-87
2024/04/21 11:40:24;;;;;;;3.40;1.80;;;6.10;99.90;;;;;;5361649;26;20026;-87
2024/04/21 11:42:49;;;;;;;10.40;3.63;;;6.10;99.90;;;;;;5364630;26;20358;-87
2024/04/21 11:45:27;;;;;;;7.60;2.33;;;6.10;99.90;;;;;;5363964;26;20586;-86
2024/04/21 11:48:06;;;;;;;1.67;1.30;;;6.10;99.90;;;;;;5366066;26;20047;-87
2024/04/21 11:50:37;;;;;;;1.50;1.23;;;6.00;99.90;;;;;;5366707;26;20048;-87
2024/04/21 11:53:05;;;;;;;1.30;1.10;;;6.00;99.90;;;;;;5372620;26;20017;-84
2024/04/21 11:55:31;;;;;;;2.13;1.20;;;5.90;99.90;;;;;;5368307;26;20004;-84
2024/04/21 11:57:57;;;;;;;3.47;1.30;;;5.60;99.90;;;;;;5369097;26;20011;-85
2024/04/21 12:00:23;;;;;;;3.00;1.57;;;5.30;99.90;;;;;;5368357;26;20060;-84
2024/04/21 12:02:49;;;;;;;3.53;1.80;;;5.00;99.90;;;;;;5369542;26;20085;-83
2024/04/21 12:05:16;;;;;;;2.10;1.60;;;4.70;99.90;;;;;;5369095;26;20051;-84
2024/04/21 12:07:41;;;;;;;2.23;1.67;;;4.30;99.90;;;;;;5369217;26;20032;-84
2024/04/21 12:10:07;;;;;;;3.03;1.53;;;4.00;99.90;;;;;;5369545;26;20008;-83
2024/04/21 12:12:32;;;;;;;2.00;1.50;;;3.70;99.90;;;;;;5369842;26;20052;-82
2024/04/21 12:14:58;;;;;;;2.10;1.50;;;3.40;99.90;;;;;;5369411;26;20022;-81
2024/04/21 12:17:24;;;;;;;2.57;1.63;;;3.10;99.90;;;;;;5365722;26;20416;-82
2024/04/21 12:19:49;;;;;;;4.50;2.47;;;2.90;99.90;;;;;;5365556;26;20068;-82
2024/04/21 12:22:15;;;;;;;2.47;1.90;;;2.70;99.90;;;;;;5366061;26;20015;-82
2024/04/21 12:24:41;;;;;;;2.00;1.80;;;2.60;99.90;;;;;;5366093;26;20166;-83
2024/04/21 12:27:07;;;;;;;2.90;1.80;;;2.40;99.90;;;;;;5361647;26;20000;-83
2024/04/21 12:29:33;;;;;;;3.50;2.00;;;2.30;99.90;;;;;;5363901;26;20212;-83
2024/04/21 12:31:58;;;;;;;2.40;1.97;;;2.20;99.90;;;;;;5365157;26;20349;-82
2024/04/21 12:34:24;;;;;;;2.50;2.10;;;2.20;99.90;;;;;;5363832;26;20094;-83
2024/04/21 12:36:50;;;;;;;3.50;2.20;;;2.10;99.90;;;;;;5363846;26;20003;-82
2024/04/21 12:39:15;;;;;;;3.87;2.40;;;2.10;99.90;;;;;;5364660;26;20004;-82
2024/04/21 12:41:42;;;;;;;4.70;2.20;;;2.00;99.90;;;;;;5362739;26;19997;-82
2024/04/21 12:44:10;;;;;;;4.47;2.97;;;2.00;99.90;;;;;;5359855;26;20019;-83
2024/04/21 12:46:35;;;;;;;5.03;3.83;;;2.00;99.90;;;;;;5364665;26;20023;-83
2024/04/21 12:49:02;;;;;;;3.50;2.60;;;2.00;99.90;;;;;;5364006;26;19997;-83
2024/04/21 12:51:27;;;;;;;2.90;2.40;;;2.00;99.90;;;;;;5364572;26;20082;-82
2024/04/21 12:53:53;;;;;;;4.63;3.43;;;2.10;99.90;;;;;;5366695;26;20009;-83